Pagina principale
METAR-TAF:

METAR-TAF

Aeroporti :

Aeroporto di Graz

Graz, Austria

latitudine: 47-00N, longitudine: 015-26E, altezza: 340 m

Osservazione

Il bollettino è stato emesso 38 minuti fa, alle 13:20 UTC
Vento 7 kt da sud/sud-est, variando fra est/sud-est e sud/sud-ovest
Temperature 27°C
Umidità 39%
Pressione 1016 hPa
Visibilità 10 km o più
nessuna nube inferiore a 1500 m e nessun cumulonembo

METAR: LOWG 171320Z AUTO 16007KT 120V200 CAVOK 27/12 Q1016 NOSIG

Ora: 15:58 (13:58 UTC)

Previsione

Il bollettino è stato emesso 2 ore e 43 minuti fa, alle 11:15 UTC
Previsione valida dal 17 alle 12 UTC al 18 alle 12 UTC
Vento 3 kt da direzioni variabili
Visibilità 10 km o più
Poco nuvoloso ad un'altezza di 4000 ft
Temporaneamente
dal 17 alle 12 UTC al 17 alle 18 UTC
Vento 8 kt da sud/sud-est

TAF: LOWG 171115Z 1712/1812 VRB03KT 9999 FEW040 TX27/1812Z TN15/1803Z TEMPO 1712/1718 15008KT

Osservazioni e previsioni meteorologiche di più di 4000 aeroporti (messaggi METAR e TAF).

Le stazioni disponibili sono rappresentate dai dischi gialli e rossi sulla carta.

Puntare il mouse per vedere il nome della stazione.

Clicca sopra per visualizzare le osservazioni e previsioni meteorologiche.

Per cambiare la mappa : fare clic sui pulsanti verdi con una croce nera per ingrandire, il pulsante verde con un trattino per diminuire, o sulla freccia verde per le mappe adiacenti.


METAR-TAF: